Time;durP1;ratioP1;P1;durP2;ratioP2;P2;SDS_P1;SDS_P2;PMS_P1;PMS_P2;Temp;Humidity;BMP_temperature;BMP_pressure;BME280_temperature;BME280_humidity;BME280_pressure;Samples;Min_cycle;Max_cycle;Signal;HPM_P1;HPM_P2
2020/12/09 00:02:23;;;;;;;;;;;;;;;-5.75;58.09;101537.53;1725521;82;21183;-82
2020/12/09 00:04:49;;;;;;;23.17;11.27;;;;;;;-5.76;58.06;101535.02;1696992;83;21124;-82
2020/12/09 00:07:18;;;;;;;17.00;10.10;;;;;;;-5.80;58.07;101536.88;1725539;82;21258;-82
2020/12/09 00:09:45;;;;;;;14.47;8.17;;;;;;;-5.82;58.11;101530.88;1726013;82;21483;-82
2020/12/09 00:12:12;;;;;;;15.83;11.13;;;;;;;-5.89;58.24;101532.83;1724592;83;21211;-83
2020/12/09 00:14:40;;;;;;;17.83;9.57;;;;;;;-5.90;58.19;101535.48;1726311;83;21143;-82
2020/12/09 00:17:07;;;;;;;;;;;;;;;-5.95;58.27;101525.72;1729433;82;21234;-82
2020/12/09 00:19:33;;;;;;;19.90;11.27;;;;;;;-5.95;58.35;101524.42;1726489;81;20199;-82
2020/12/09 00:22:00;;;;;;;;;;;;;;;-5.96;58.41;101525.34;1698527;83;21175;-82
2020/12/09 00:24:27;;;;;;;16.17;9.80;;;;;;;-5.96;58.49;101524.88;1708213;84;20689;-81
2020/12/09 00:26:54;;;;;;;19.80;9.27;;;;;;;-5.95;58.40;101528.32;1726745;81;21329;-82
2020/12/09 00:29:21;;;;;;;18.87;8.17;;;;;;;-5.99;58.43;101522.84;1711391;83;21188;-80
2020/12/09 00:31:48;;;;;;;17.40;9.60;;;;;;;-5.96;58.24;101525.34;1694653;83;21206;-81
2020/12/09 00:34:15;;;;;;;;;;;;;;;-5.95;58.35;101529.16;1706586;83;21342;-81
2020/12/09 00:36:42;;;;;;;12.43;7.60;;;;;;;-5.92;58.19;101521.24;1703493;82;20195;-82
2020/12/09 00:39:09;;;;;;;;;;;;;;;-5.92;58.17;101529.49;1721863;82;21170;-84
2020/12/09 00:41:35;;;;;;;14.47;8.53;;;;;;;-5.90;57.98;101517.30;1708670;83;20229;-83
2020/12/09 00:44:02;;;;;;;19.47;11.27;;;;;;;-5.86;57.68;101516.28;1705354;83;21244;-83
2020/12/09 00:46:29;;;;;;;14.00;9.50;;;;;;;-5.83;57.63;101513.59;1698691;84;21164;-83
2020/12/09 00:48:59;;;;;;;16.80;8.90;;;;;;;-5.79;57.62;101521.67;1698052;83;21619;-80
2020/12/09 00:51:27;;;;;;;16.70;9.83;;;;;;;-5.75;57.36;101509.42;1719037;82;21196;-81
2020/12/09 00:53:54;;;;;;;17.13;9.93;;;;;;;-5.75;57.43;101518.52;1704020;82;21204;-81
2020/12/09 00:56:23;;;;;;;15.33;9.77;;;;;;;-5.69;57.36;101513.96;1715403;82;21185;-81
2020/12/09 00:58:51;;;;;;;14.23;7.33;;;;;;;-5.62;57.17;101516.33;1694689;83;21194;-80
2020/12/09 01:01:19;;;;;;;14.97;9.47;;;;;;;-5.62;56.80;101509.38;1709428;83;21614;-81
2020/12/09 01:03:48;;;;;;;18.43;9.93;;;;;;;-5.58;56.83;101507.52;1727527;81;21148;-82
2020/12/09 01:06:15;;;;;;;16.70;10.37;;;;;;;-5.56;56.87;101506.55;1702845;83;21590;-83
2020/12/09 01:08:42;;;;;;;17.83;10.43;;;;;;;-5.52;56.66;101505.55;1727240;81;21171;-83
2020/12/09 01:11:09;;;;;;;;;;;;;;;-5.44;56.55;101496.17;1722463;81;21171;-84
2020/12/09 01:13:36;;;;;;;15.20;8.63;;;;;;;-5.43;56.32;101493.12;1720498;82;20236;-82
2020/12/09 01:16:05;;;;;;;13.77;9.13;;;;;;;-5.48;56.40;101501.09;1707851;82;21412;-82
2020/12/09 01:18:32;;;;;;;;;;;;;;;-5.51;56.58;101496.00;1711372;82;21318;-84
2020/12/09 01:21:00;;;;;;;14.23;9.07;;;;;;;-5.50;56.63;101488.59;1704138;83;20187;-84
2020/12/09 01:23:27;;;;;;;14.23;9.37;;;;;;;-5.54;56.75;101490.48;1713871;82;21210;-84
2020/12/09 01:25:54;;;;;;;20.50;9.60;;;;;;;-5.49;56.67;101486.39;1717621;83;21227;-83
2020/12/09 01:28:21;;;;;;;;;;;;;;;-5.46;56.71;101486.30;1721491;82;21200;-85
2020/12/09 01:30:48;;;;;;;17.27;9.90;;;;;;;-5.44;56.70;101479.28;1719514;82;20445;-83
2020/12/09 01:33:15;;;;;;;17.90;10.27;;;;;;;-5.48;56.81;101480.31;1725990;81;21172;-83
2020/12/09 01:35:42;;;;;;;;;;;;;;;-5.44;56.80;101488.38;1710191;83;21120;-83
2020/12/09 01:38:09;;;;;;;13.40;8.27;;;;;;;-5.43;56.83;101471.87;1738957;81;20169;-85
2020/12/09 01:40:37;;;;;;;18.37;9.90;;;;;;;-5.45;56.95;101478.04;1707147;82;21230;-82
2020/12/09 01:43:04;;;;;;;21.20;10.00;;;;;;;-5.39;56.98;101487.73;1677370;84;21211;-84
2020/12/09 01:45:33;;;;;;;17.50;10.43;;;;;;;-5.32;56.92;101481.86;1706358;82;21592;-83
2020/12/09 01:48:00;;;;;;;15.70;9.80;;;;;;;-5.29;56.84;101477.41;1705987;82;21223;-83
2020/12/09 01:50:26;;;;;;;;;;;;;;;-5.24;56.73;101475.07;1708689;82;21208;-85
2020/12/09 01:52:53;;;;;;;14.57;8.93;;;;;;;-5.18;56.83;101489.12;1706235;82;20205;-86
2020/12/09 01:55:22;;;;;;;15.53;9.87;;;;;;;-5.23;56.83;101489.31;1706131;82;21179;-84
2020/12/09 01:57:49;;;;;;;18.87;9.77;;;;;;;-5.20;56.89;101481.84;1706539;83;21196;-82
2020/12/09 02:00:16;;;;;;;14.90;7.77;;;;;;;-5.17;56.89;101483.88;1706349;82;21208;-85
2020/12/09 02:02:43;;;;;;;21.53;11.17;;;;;;;-5.14;56.96;101476.40;1728202;82;21656;-85
2020/12/09 02:05:12;;;;;;;17.80;10.97;;;;;;;-5.10;56.97;101480.59;1741452;82;21412;-84
2020/12/09 02:07:39;;;;;;;18.67;9.50;;;;;;;-5.07;57.03;101477.86;1730240;82;21230;-84
2020/12/09 02:10:08;;;;;;;16.57;10.27;;;;;;;-4.99;57.00;101479.72;1706639;82;21158;-82
2020/12/09 02:12:39;;;;;;;16.37;9.67;;;;;;;-4.97;57.06;101487.01;1701128;83;21229;-82
2020/12/09 02:15:08;;;;;;;18.77;10.63;;;;;;;-4.96;57.04;101484.78;1712370;82;21195;-84
2020/12/09 02:17:35;;;;;;;13.37;9.23;;;;;;;-4.92;57.15;101487.66;1698505;84;21301;-82
2020/12/09 02:20:07;;;;;;;18.37;9.80;;;;;;;-5.01;57.08;101473.74;1702446;83;21310;-83
2020/12/09 02:22:55;;;;;;;21.03;11.53;;;;;;;-4.81;57.11;101485.09;1831697;76;23158;-82
2020/12/09 02:25:22;;;;;;;17.37;10.70;;;;;;;-4.81;57.15;101492.90;1734304;80;21149;-82
2020/12/09 02:27:49;;;;;;;18.13;9.60;;;;;;;-4.77;57.19;101486.66;1735326;81;21388;-82
2020/12/09 02:30:17;;;;;;;11.13;8.07;;;;;;;-4.73;57.18;101487.80;1734362;81;21208;-85
2020/12/09 02:32:44;;;;;;;15.60;9.90;;;;;;;-4.65;57.08;101490.52;1735194;81;21183;-82
2020/12/09 02:35:13;;;;;;;17.87;10.33;;;;;;;-4.62;57.14;101495.14;1749683;81;21609;-82
2020/12/09 02:37:44;;;;;;;14.23;9.40;;;;;;;-4.57;57.00;101488.00;1700003;82;21227;-83
2020/12/09 02:40:11;;;;;;;16.27;9.43;;;;;;;-4.53;57.08;101488.73;1697747;82;21337;-86
2020/12/09 02:42:45;;;;;;;27.03;9.80;;;;;;;-4.52;57.17;101479.99;1686651;82;21184;-83
2020/12/09 02:45:13;;;;;;;14.13;10.33;;;;;;;-4.46;57.15;101491.91;1710666;82;21176;-82
2020/12/09 02:47:40;;;;;;;18.37;10.50;;;;;;;-4.44;57.17;101485.75;1704052;82;21211;-82
2020/12/09 02:50:06;;;;;;;;;;;;;;;-4.41;57.18;101491.27;1703732;82;21329;-83
2020/12/09 02:52:33;;;;;;;16.23;9.30;;;;;;;-4.52;57.41;101493.88;1711511;82;20483;-81
2020/12/09 02:55:00;;;;;;;17.73;9.87;;;;;;;-4.54;57.61;101494.40;1709914;82;21672;-86
2020/12/09 02:57:28;;;;;;;14.67;8.97;;;;;;;-4.57;57.76;101493.21;1696009;82;21183;-85
2020/12/09 02:59:56;;;;;;;15.13;9.50;;;;;;;-4.51;57.78;101495.55;1697232;82;21174;-85
2020/12/09 03:02:23;;;;;;;;;;;;;;;-4.46;57.83;101498.41;1708284;82;21365;-85
2020/12/09 03:04:50;;;;;;;19.53;8.80;;;;;;;-4.43;57.85;101490.49;1707171;82;20308;-84
2020/12/09 03:07:18;;;;;;;13.87;9.07;;;;;;;-4.40;57.83;101495.12;1697025;81;21062;-83
2020/12/09 03:09:45;;;;;;;15.73;9.17;;;;;;;-4.35;57.80;101493.61;1703526;82;21172;-82
2020/12/09 03:12:15;;;;;;;;;;;;;;;-4.32;57.81;101493.03;1698783;82;21209;-83
2020/12/09 03:14:49;;;;;;;17.27;10.00;;;;;;;-4.25;57.69;101493.63;1705070;82;20201;-82
2020/12/09 03:17:16;;;;;;;16.30;9.33;;;;;;;-4.24;57.79;101496.61;1713419;82;21185;-82
2020/12/09 03:19:45;;;;;;;13.57;8.77;;;;;;;-4.18;57.61;101505.48;1714480;82;21153;-82
2020/12/09 03:22:12;;;;;;;13.73;8.87;;;;;;;-4.14;57.61;101494.03;1711129;78;21201;-83
2020/12/09 03:24:39;;;;;;;18.10;8.87;;;;;;;-4.10;57.60;101497.34;1705324;82;21232;-82
2020/12/09 03:27:08;;;;;;;14.53;7.80;;;;;;;-4.03;57.33;101509.20;1711388;82;21678;-86
2020/12/09 03:29:35;;;;;;;16.30;10.00;;;;;;;-4.03;57.31;101507.03;1704164;82;21652;-83
2020/12/09 03:32:04;;;;;;;13.17;8.60;;;;;;;-4.01;57.19;101506.08;1702232;82;21233;-84
2020/12/09 03:34:34;;;;;;;12.83;9.03;;;;;;;-4.03;57.29;101500.52;1714421;82;21189;-84
2020/12/09 03:37:01;;;;;;;16.17;9.97;;;;;;;-4.02;57.26;101500.92;1661638;83;21641;-85
2020/12/09 03:39:30;;;;;;;18.57;9.73;;;;;;;-4.02;57.42;101499.62;1667107;85;21211;-83
2020/12/09 03:41:57;;;;;;;;;;;;;;;-3.98;57.11;101486.39;1668333;83;21878;-83
2020/12/09 03:44:24;;;;;;;15.93;8.17;;;;;;;-3.95;57.17;101490.17;1668164;83;20597;-84
2020/12/09 03:46:51;;;;;;;12.73;9.10;;;;;;;-4.02;57.31;101491.81;1664676;83;21676;-82
2020/12/09 03:49:17;;;;;;;;;;;;;;;-4.01;57.34;101492.18;1690560;83;21335;-84
2020/12/09 03:51:46;;;;;;;15.70;7.73;;;;;;;-4.03;57.26;101492.27;1656064;85;20206;-83
2020/12/09 03:54:13;;;;;;;13.67;9.27;;;;;;;-4.04;57.40;101497.55;1684195;83;21164;-84
2020/12/09 03:56:40;;;;;;;;;;;;;;;-4.03;57.35;101495.31;1665104;84;21203;-84
2020/12/09 03:59:07;;;;;;;14.70;8.83;;;;;;;-4.05;57.54;101483.69;1633815;85;20187;-83
2020/12/09 04:01:35;;;;;;;;;;;;;;;-4.00;57.55;101481.70;1693944;83;21680;-85
2020/12/09 04:04:02;;;;;;;17.00;10.57;;;;;;;-4.06;57.65;101488.95;1678287;83;20231;-85
2020/12/09 04:06:29;;;;;;;19.73;9.60;;;;;;;-4.04;57.64;101484.05;1702569;82;21115;-83
2020/12/09 04:08:56;;;;;;;19.75;11.12;;;;;;;-4.04;57.85;101476.24;1715066;83;21164;-83
2020/12/09 04:11:25;;;;;;;17.23;9.83;;;;;;;-3.98;57.74;101479.04;1696499;82;21182;-83
2020/12/09 04:13:53;;;;;;;;;;;;;;;-3.97;57.78;101475.53;1701436;84;21688;-84
2020/12/09 04:16:20;;;;;;;16.27;9.48;;;;;;;-3.97;57.82;101474.23;1693033;83;20916;-82
2020/12/09 04:18:53;;;;;;;18.87;11.93;;;;;;;-4.01;58.02;101472.22;1694404;84;21199;-85
2020/12/09 04:21:21;;;;;;;18.83;10.60;;;;;;;-3.99;58.09;101474.76;1693242;83;21420;-84
2020/12/09 04:23:48;;;;;;;15.88;10.63;;;;;;;-3.98;58.20;101465.55;1705074;82;21230;-84
2020/12/09 04:26:15;;;;;;;18.37;10.23;;;;;;;-3.95;58.15;101485.43;1696516;84;21673;-87
2020/12/09 04:28:44;;;;;;;18.20;10.43;;;;;;;-3.94;58.21;101478.85;1696899;83;21220;-85
2020/12/09 04:31:11;;;;;;;18.37;9.30;;;;;;;-3.94;58.27;101466.27;1699060;82;21775;-83
2020/12/09 04:33:44;;;;;;;16.37;9.93;;;;;;;-3.94;58.43;101480.16;1697391;84;21186;-83
2020/12/09 04:36:11;;;;;;;18.87;11.27;;;;;;;-3.99;58.59;101477.36;1681899;84;21218;-84
2020/12/09 04:38:39;;;;;;;16.83;9.13;;;;;;;-3.92;58.55;101481.36;1666781;84;21356;-84
2020/12/09 04:41:06;;;;;;;14.67;9.60;;;;;;;-3.96;58.69;101488.93;1686662;83;21715;-83
2020/12/09 04:43:33;;;;;;;10.87;7.03;;;;;;;-3.95;58.77;101481.52;1670798;83;21155;-84
2020/12/09 04:46:02;;;;;;;17.73;11.07;;;;;;;-4.00;58.97;101483.47;1666041;86;21238;-84
2020/12/09 04:48:29;;;;;;;19.33;9.00;;;;;;;-3.95;59.03;101484.13;1663659;85;21773;-83
2020/12/09 04:51:11;;;;;;;17.93;10.30;;;;;;;-3.93;59.09;101501.37;1674588;86;21195;-84
2020/12/09 04:53:38;;;;;;;16.40;10.90;;;;;;;-3.91;58.99;101490.42;1653339;85;21170;-84
2020/12/09 04:56:05;;;;;;;17.23;11.00;;;;;;;-3.88;59.10;101486.86;1650787;86;21207;-84
2020/12/09 04:58:43;;;;;;;16.63;9.93;;;;;;;-3.86;59.20;101488.94;1650411;84;21221;-82
2020/12/09 05:01:14;;;;;;;20.65;10.63;;;;;;;-3.81;59.12;101489.55;1651828;86;21195;-85
2020/12/09 05:03:50;;;;;;;17.67;10.93;;;;;;;-3.80;59.26;101486.52;1654435;83;21148;-83
2020/12/09 05:06:18;;;;;;;18.50;11.37;;;;;;;-3.79;59.36;101503.36;1674652;82;21098;-85
2020/12/09 05:08:56;;;;;;;16.77;11.50;;;;;;;-3.82;59.52;101500.91;1716664;82;21355;-83
2020/12/09 05:11:26;;;;;;;20.77;10.70;;;;;;;-3.81;59.58;101496.07;1719742;82;21349;-84
2020/12/09 05:13:58;;;;;;;19.03;10.10;;;;;;;-3.83;59.80;101503.58;1719400;82;21184;-86
2020/12/09 05:16:25;;;;;;;19.90;11.70;;;;;;;-3.86;60.04;101501.96;1693693;84;21202;-83
2020/12/09 05:19:01;;;;;;;20.30;11.30;;;;;;;-3.83;60.00;101507.48;1715091;82;21625;-88
2020/12/09 05:21:29;;;;;;;26.77;13.07;;;;;;;-3.87;60.16;101489.84;1712996;82;21200;-85
2020/12/09 05:24:00;;;;;;;25.83;12.07;;;;;;;-3.84;60.24;101494.05;1719156;81;21654;-87
2020/12/09 05:26:38;;;;;;;18.43;11.43;;;;;;;-3.81;60.33;101494.77;1717038;81;21732;-83
2020/12/09 05:29:17;;;;;;;22.03;12.10;;;;;;;-3.80;60.32;101504.30;1707693;80;21179;-80
2020/12/09 05:31:46;;;;;;;16.35;9.93;;;;;;;-4.21;60.48;101440.52;1721593;81;21306;-84
2020/12/09 05:34:32;;;;;;;20.30;12.37;;;;;;;-3.88;60.87;101494.67;1721488;81;21208;-84
2020/12/09 05:37:02;;;;;;;21.07;12.03;;;;;;;-3.87;60.95;101506.77;1699872;82;21233;-85
2020/12/09 05:39:29;;;;;;;24.07;13.40;;;;;;;-3.89;61.09;101507.30;1700826;82;21230;-84
2020/12/09 05:41:56;;;;;;;;;;;;;;;-3.83;61.11;101514.84;1720385;81;21200;-83
2020/12/09 05:44:24;;;;;;;20.47;11.17;;;;;;;-3.85;61.42;101508.01;1735898;81;20184;-85
2020/12/09 05:47:02;;;;;;;25.93;13.67;;;;;;;-3.83;61.33;101503.11;1700746;82;21181;-85
2020/12/09 05:49:35;;;;;;;21.87;13.17;;;;;;;-3.88;61.86;101506.83;1700695;82;21259;-86
2020/12/09 05:52:19;;;;;;;26.13;15.37;;;;;;;-3.85;61.70;101506.70;1699140;82;21306;-84
2020/12/09 05:54:49;;;;;;;31.43;16.53;;;;;;;-3.84;61.86;101511.86;1710797;82;21198;-84
2020/12/09 05:57:26;;;;;;;24.70;13.63;;;;;;;-3.83;61.98;101518.74;1708699;82;21827;-86
2020/12/09 05:59:54;;;;;;;28.13;13.50;;;;;;;-3.80;62.05;101522.53;1697800;83;21205;-87
2020/12/09 06:02:25;;;;;;;27.30;15.83;;;;;;;-3.89;62.46;101512.50;1713200;82;21209;-85
2020/12/09 06:05:01;;;;;;;26.93;13.93;;;;;;;-3.94;62.73;101511.84;1700309;82;21324;-85
2020/12/09 06:07:30;;;;;;;23.00;15.27;;;;;;;-3.95;63.15;101515.38;1703977;82;21207;-86
2020/12/09 06:10:19;;;;;;;20.23;11.83;;;;;;;-3.93;63.08;101512.25;1702660;82;21660;-87
2020/12/09 06:12:55;;;;;;;25.27;13.48;;;;;;;-3.91;63.31;101501.31;1702310;82;21196;-88
2020/12/09 06:15:28;;;;;;;25.53;13.40;;;;;;;-3.94;63.71;101503.59;1709540;82;21186;-88
2020/12/09 06:18:13;;;;;;;22.13;14.03;;;;;;;-3.96;63.92;101518.42;1715129;83;21190;-87
2020/12/09 06:20:42;;;;;;;25.87;16.27;;;;;;;-3.94;64.01;101520.53;1710374;82;21190;-86
2020/12/09 06:23:11;;;;;;;17.17;9.73;;;;;;;-3.94;64.12;101519.23;1710995;82;21813;-84
2020/12/09 06:25:39;;;;;;;19.10;11.63;;;;;;;-3.99;64.56;101528.15;1688739;82;21202;-83
2020/12/09 06:28:11;;;;;;;23.23;16.00;;;;;;;-3.95;64.70;101527.94;1697738;82;22241;-86
2020/12/09 06:30:38;;;;;;;22.53;13.37;;;;;;;-3.91;64.63;101523.45;1692466;82;21304;-87
2020/12/09 06:33:06;;;;;;;33.00;15.93;;;;;;;-3.99;65.31;101528.15;1698862;82;21687;-85
2020/12/09 06:35:33;;;;;;;28.27;13.77;;;;;;;-3.96;65.29;101517.58;1712175;82;21120;-84
2020/12/09 06:38:12;;;;;;;;;;;;;;;-3.97;65.31;101519.34;1726171;82;21717;-83
2020/12/09 06:41:04;;;;;;;26.80;14.83;;;;;;;-3.91;65.26;101520.84;1716653;82;20283;-84
2020/12/09 06:43:33;;;;;;;27.23;14.43;;;;;;;-3.93;65.59;101519.60;1691829;82;21328;-83
2020/12/09 06:46:00;;;;;;;30.37;16.30;;;;;;;-3.89;66.01;101511.20;1701404;82;21216;-84
2020/12/09 06:48:27;;;;;;;32.63;16.25;;;;;;;-3.86;65.95;101521.94;1701931;82;21316;-87
2020/12/09 06:50:55;;;;;;;35.00;18.70;;;;;;;-3.87;66.09;101526.30;1669677;82;21824;-88
2020/12/09 06:53:22;;;;;;;;;;;;;;;-3.85;66.22;101517.97;1712680;82;21205;-87
2020/12/09 06:55:50;;;;;;;21.43;13.17;;;;;;;-3.80;66.26;101516.02;1700391;82;20228;-85
2020/12/09 06:58:28;;;;;;;30.97;14.80;;;;;;;-3.84;66.75;101520.11;1702728;82;21197;-85
2020/12/09 07:01:04;;;;;;;32.20;16.27;;;;;;;-3.83;66.91;101516.60;1713619;82;21231;-86
2020/12/09 07:03:37;;;;;;;25.83;16.63;;;;;;;-3.83;66.86;101520.05;1701321;82;21205;-85
2020/12/09 07:06:27;;;;;;;28.43;16.73;;;;;;;-3.80;67.07;101526.44;1697659;82;21117;-85
2020/12/09 07:08:54;;;;;;;31.17;17.30;;;;;;;-3.76;67.05;101521.94;1691119;82;21682;-81
2020/12/09 07:11:21;;;;;;;;;;;;;;;-3.73;67.10;101526.56;1705743;82;21231;-83
2020/12/09 07:13:48;;;;;;;26.37;14.93;;;;;;;-3.69;67.34;101523.38;1706518;82;20230;-84
2020/12/09 07:16:15;;;;;;;25.77;16.83;;;;;;;-4.06;67.66;101465.52;1703477;82;21372;-86
2020/12/09 07:18:42;;;;;;;23.30;13.57;;;;;;;-3.72;67.69;101519.13;1689332;82;21201;-86
2020/12/09 07:21:09;;;;;;;22.97;15.10;;;;;;;-3.72;68.30;101527.41;1696045;82;21446;-87
2020/12/09 07:26:47;;;;;;;24.77;14.83;;;;;;;-3.70;68.39;101524.73;1807241;77;23378;-88
2020/12/09 07:29:20;;;;;;;25.83;16.13;;;;;;;-3.73;68.35;101522.66;1731112;81;21180;-84
2020/12/09 07:31:48;;;;;;;24.20;11.90;;;;;;;-4.01;68.55;101475.25;1725945;81;21198;-86
2020/12/09 07:34:15;;;;;;;23.37;13.53;;;;;;;-3.76;69.07;101518.03;1742348;81;21200;-90
2020/12/09 07:36:51;;;;;;;25.43;14.07;;;;;;;-3.84;69.54;101534.00;1698378;82;21529;-87
2020/12/09 07:39:30;;;;;;;25.53;16.20;;;;;;;-3.85;69.63;101539.27;1682489;84;21175;-84
2020/12/09 07:41:58;;;;;;;29.43;18.23;;;;;;;-3.77;69.51;101525.02;1683649;84;21520;-87
2020/12/09 07:44:26;;;;;;;34.70;18.57;;;;;;;-3.74;69.73;101520.11;1678604;84;21361;-87
2020/12/09 07:46:56;;;;;;;29.47;18.27;;;;;;;-3.62;69.44;101527.84;1680005;84;21195;-86
2020/12/09 07:49:25;;;;;;;31.63;18.13;;;;;;;-3.56;69.27;101522.34;1683899;84;21152;-88
2020/12/09 07:51:57;;;;;;;31.93;20.10;;;;;;;-3.44;69.06;101515.77;1680828;84;21206;-86
2020/12/09 07:54:24;;;;;;;29.37;16.83;;;;;;;-3.39;69.09;101522.89;1679882;84;21219;-88
2020/12/09 07:57:02;;;;;;;30.60;16.93;;;;;;;-3.33;68.69;101540.42;1680690;85;21207;-89
2020/12/09 08:00:15;;;;;;;32.17;18.00;;;;;;;-3.32;69.18;101519.09;1803581;78;22854;-87
2020/12/09 08:02:45;;;;;;;37.60;20.27;;;;;;;-3.33;69.00;101523.48;1719253;83;21645;-88
2020/12/09 08:05:21;;;;;;;36.97;21.03;;;;;;;-3.32;69.07;101523.02;1725852;81;21359;-90
2020/12/09 08:07:58;;;;;;;30.40;17.13;;;;;;;-3.49;68.95;101496.41;1642223;87;21614;-87
2020/12/09 08:10:54;;;;;;;32.67;19.73;;;;;;;-3.11;68.62;101519.03;1754241;79;23061;-86
2020/12/09 08:16:19;;;;;;;28.43;17.53;;;;;;;-3.12;69.08;101522.58;1873605;74;22319;-88
2020/12/09 08:18:47;;;;;;;32.17;18.53;;;;;;;-3.18;69.04;101525.01;1836145;75;21160;-90
2020/12/09 08:21:17;;;;;;;25.90;15.50;;;;;;;-3.20;69.32;101524.20;1789318;78;21170;-90
2020/12/09 08:23:48;;;;;;;26.33;14.77;;;;;;;-3.15;69.07;101523.08;1703017;81;22288;-89
2020/12/09 08:26:33;;;;;;;35.20;18.00;;;;;;;-3.11;69.09;101524.25;1765619;80;21162;-90
2020/12/09 08:29:03;;;;;;;27.00;14.87;;;;;;;-3.10;68.97;101529.40;1775050;79;21827;-88
2020/12/09 08:31:31;;;;;;;26.60;17.43;;;;;;;-3.14;69.24;101529.16;1775580;80;21152;-89
2020/12/09 08:33:58;;;;;;;28.87;17.67;;;;;;;-3.10;69.06;101517.66;1752590;80;21329;-86
2020/12/09 08:36:27;;;;;;;28.70;18.03;;;;;;;-3.06;69.07;101511.37;1736567;80;21284;-85
2020/12/09 08:38:59;;;;;;;33.27;17.97;;;;;;;-2.97;68.89;101516.17;1710553;81;21154;-86
2020/12/09 08:41:33;;;;;;;27.37;15.23;;;;;;;-2.89;68.73;101525.41;1747804;81;21206;-90
2020/12/09 08:44:06;;;;;;;26.10;16.17;;;;;;;-2.84;67.95;101523.44;1740763;81;21183;-87
2020/12/09 08:46:36;;;;;;;27.13;16.90;;;;;;;-2.81;67.94;101520.66;1752316;82;21168;-84
2020/12/09 08:49:06;;;;;;;31.40;16.27;;;;;;;-2.80;68.02;101528.89;1735115;82;21260;-86
2020/12/09 08:52:05;;;;;;;26.57;17.00;;;;;;;-2.71;67.69;101521.92;1803869;79;23081;-89
2020/12/09 08:54:48;;;;;;;30.97;15.63;;;;;;;-2.76;67.60;101525.20;1714061;83;21247;-89
2020/12/09 08:57:46;;;;;;;26.37;14.87;;;;;;;-2.84;67.50;101512.53;1752968;81;21200;-90
2020/12/09 09:00:20;;;;;;;43.57;18.50;;;;;;;-2.93;66.48;101524.70;1709926;82;21232;-89
2020/12/09 09:02:56;;;;;;;32.63;14.47;;;;;;;-2.99;66.70;101519.31;1721202;82;21187;-89
2020/12/09 09:05:25;;;;;;;61.23;22.57;;;;;;;-3.05;66.40;101535.26;1734538;81;22314;-89
2020/12/09 09:07:57;;;;;;;33.43;14.60;;;;;;;-3.11;66.38;101519.03;1691573;83;21193;-92
2020/12/09 09:10:35;;;;;;;27.87;12.87;;;;;;;-3.10;66.41;101533.31;1671891;84;21182;-92
2020/12/09 09:13:07;;;;;;;26.03;14.07;;;;;;;-3.15;65.95;101509.20;1682306;83;21231;-91
2020/12/09 09:16:08;;;;;;;40.73;14.87;;;;;;;-3.18;65.91;101511.50;1667830;84;21411;-93
2020/12/09 09:18:36;;;;;;;27.87;16.48;;;;;;;-3.18;66.27;101514.58;1632489;85;21769;-90
2020/12/09 09:21:05;;;;;;;20.17;12.57;;;;;;;-3.06;65.60;101515.77;1687090;83;21233;-86
2020/12/09 09:23:33;;;;;;;20.43;13.37;;;;;;;-3.08;65.02;101514.52;1688350;84;21270;-90
2020/12/09 09:26:04;;;;;;;39.17;16.47;;;;;;;-3.00;64.46;101524.13;1668172;84;21641;-91
2020/12/09 09:28:48;;;;;;;49.87;18.97;;;;;;;-3.09;64.82;101517.20;1819067;77;23596;-91
2020/12/09 09:31:19;;;;;;;33.40;13.77;;;;;;;-3.06;64.71;101516.59;1808444;78;21150;-90
2020/12/09 09:33:46;;;;;;;30.33;15.23;;;;;;;-3.08;64.64;101504.09;1812669;77;21170;-90
2020/12/09 09:36:14;;;;;;;25.50;13.87;;;;;;;-3.01;64.75;101504.20;1773808;78;21147;-92
2020/12/09 09:38:45;;;;;;;32.43;14.40;;;;;;;-3.05;64.68;101535.69;1712324;82;21203;-89
2020/12/09 09:41:16;;;;;;;32.73;14.37;;;;;;;-3.01;64.15;101491.62;1717902;82;21269;-89
2020/12/09 09:43:47;;;;;;;25.40;11.40;;;;;;;-3.01;64.33;101498.98;1653586;85;21310;-90
2020/12/09 09:46:23;;;;;;;22.57;13.00;;;;;;;-3.04;64.07;101484.77;1650106;85;21226;-90
2020/12/09 09:48:50;;;;;;;19.37;11.87;;;;;;;-3.07;64.70;101507.09;1697319;80;21172;-91
2020/12/09 09:51:19;;;;;;;24.27;12.37;;;;;;;-3.15;64.84;101519.16;1626178;85;21164;-91
2020/12/09 09:53:48;;;;;;;27.03;13.73;;;;;;;-3.17;65.13;101518.39;1655933;82;21811;-91
2020/12/09 09:56:16;;;;;;;26.10;15.23;;;;;;;-3.14;65.09;101503.92;1686527;84;21302;-91
2020/12/09 09:58:44;;;;;;;26.13;13.87;;;;;;;-3.14;65.29;101500.47;1681298;84;21195;-89
2020/12/09 10:01:14;;;;;;;25.17;14.67;;;;;;;-3.07;65.28;101500.58;1680773;84;21243;-88
2020/12/09 10:03:42;;;;;;;35.13;14.20;;;;;;;-3.00;65.18;101503.26;1680867;84;21120;-89
2020/12/09 10:06:13;;;;;;;59.07;22.27;;;;;;;-2.97;65.10;101505.73;1691288;83;21102;-92
2020/12/09 10:08:46;;;;;;;29.13;17.30;;;;;;;-2.96;65.36;101513.97;1693165;83;21203;-86
2020/12/09 10:11:19;;;;;;;26.63;16.50;;;;;;;-2.95;65.34;101505.67;1700337;83;21462;-89
2020/12/09 10:13:51;;;;;;;29.13;16.73;;;;;;;-2.98;65.39;101492.29;1708099;83;21800;-93
2020/12/09 10:16:27;;;;;;;;;;;;;;;-2.87;65.27;101504.83;1704138;83;21211;-90
2020/12/09 10:18:59;;;;;;;33.92;14.63;;;;;;;-2.86;64.98;101488.71;1705681;83;20189;-90
2020/12/09 10:21:47;;;;;;;26.40;13.43;;;;;;;-2.80;64.93;101493.19;1752092;80;24321;-92
2020/12/09 10:24:21;;;;;;;44.23;14.80;;;;;;;-2.81;65.11;101482.35;1752705;80;21659;-93
2020/12/09 10:26:58;;;;;;;38.30;17.35;;;;;;;-2.79;65.19;101503.16;1724794;81;21441;-90
2020/12/09 10:29:28;;;;;;;25.17;16.23;;;;;;;-3.97;65.04;101295.81;1761422;80;21195;-89
2020/12/09 10:32:03;;;;;;;26.68;15.88;;;;;;;-2.77;65.20;101484.36;1761977;80;21180;-89
2020/12/09 10:34:40;;;;;;;22.13;12.27;;;;;;;-3.42;64.93;101377.90;1756757;81;21328;-95
2020/12/09 10:37:13;;;;;;;20.17;12.30;;;;;;;-2.72;64.78;101500.65;1700822;80;21208;-89
2020/12/09 10:39:53;;;;;;;;;;;;;;;;;;;;;
2020/12/09 10:42:25;;;;;;;19.23;12.07;;;;;;;-2.70;65.15;101474.02;1807848;77;22539;-90
2020/12/09 10:44:53;;;;;;;19.20;11.87;;;;;;;-2.79;65.32;101484.89;1746288;80;21160;-89
2020/12/09 10:47:25;;;;;;;23.47;11.53;;;;;;;-2.82;65.62;101491.59;1813422;79;21148;-90
2020/12/09 10:49:58;;;;;;;33.47;13.33;;;;;;;-2.82;65.51;101488.51;1784313;79;21282;-91
2020/12/09 10:52:26;;;;;;;29.47;13.27;;;;;;;-2.91;65.85;101478.98;1805765;78;21146;-92
2020/12/09 10:55:00;;;;;;;46.77;19.30;;;;;;;-2.90;65.96;101481.95;1739949;81;21327;-88
2020/12/09 10:57:28;;;;;;;32.67;12.57;;;;;;;-2.86;66.12;101480.45;1710779;80;21196;-89
2020/12/09 11:00:12;;;;;;;26.30;14.43;;;;;;;-2.79;66.20;101471.41;1750073;80;21160;-91
2020/12/09 11:02:42;;;;;;;21.53;13.30;;;;;;;-2.67;65.86;101483.01;1808381;79;21309;-93
2020/12/09 11:05:28;;;;;;;24.17;13.27;;;;;;;-2.61;65.50;101499.67;1763788;80;21132;-90
2020/12/09 11:07:59;;;;;;;20.10;13.07;;;;;;;-3.19;65.38;101394.21;1737822;81;21345;-90
2020/12/09 11:10:29;;;;;;;22.83;10.43;;;;;;;-2.66;65.31;101489.06;1741730;81;21234;-92
2020/12/09 11:12:59;;;;;;;19.17;10.93;;;;;;;-2.79;65.66;101488.80;1733467;81;21322;-90
2020/12/09 11:15:34;;;;;;;22.57;12.33;;;;;;;-2.77;65.54;101493.49;1711336;81;21211;-89
2020/12/09 11:18:04;;;;;;;21.87;13.53;;;;;;;-2.83;65.60;101471.14;1737813;81;21187;-87
2020/12/09 11:20:39;;;;;;;18.40;12.03;;;;;;;-2.81;65.54;101485.43;1734236;81;21128;-88
2020/12/09 11:23:14;;;;;;;18.87;11.10;;;;;;;-2.80;65.33;101481.45;1726144;81;21294;-88
2020/12/09 11:25:42;;;;;;;22.43;12.53;;;;;;;-2.81;65.26;101485.43;1745257;81;21209;-89
2020/12/09 11:28:14;;;;;;;22.90;12.40;;;;;;;-2.82;65.29;101478.54;1731483;81;21346;-94
2020/12/09 11:30:57;;;;;;;28.80;15.53;;;;;;;-2.80;65.36;101467.56;1692140;83;21207;-92
2020/12/09 11:33:26;;;;;;;32.23;15.10;;;;;;;-2.78;65.53;101480.08;1742055;81;21160;-87
2020/12/09 11:35:54;;;;;;;31.83;15.27;;;;;;;-2.73;65.35;101466.35;1728933;78;21100;-88
2020/12/09 11:38:53;;;;;;;14.68;12.47;;;;;;;-2.73;64.91;101468.96;1789369;78;28827;-89
2020/12/09 11:41:29;;;;;;;17.80;10.23;;;;;;;-2.64;64.50;101474.17;1781613;80;21163;-90
2020/12/09 11:43:57;;;;;;;28.45;16.20;;;;;;;-2.58;64.22;101468.20;1772640;80;21335;-89